sensor_id;sensor_type;location;lat;lon;timestamp;pressure;altitude;pressure_sealevel;temperature;humidity
72486;BME280;60509;47.308;-122.428;2023-05-22T00:01:29;101127.07;;;16.50;34.13
72486;BME280;60509;47.308;-122.428;2023-05-22T00:03:54;101125.05;;;16.50;33.94
72486;BME280;60509;47.308;-122.428;2023-05-22T00:06:20;101127.36;;;16.56;33.89
72486;BME280;60509;47.308;-122.428;2023-05-22T00:08:46;101126.28;;;16.80;33.51
72486;BME280;60509;47.308;-122.428;2023-05-22T00:11:12;101121.97;;;16.87;33.43
72486;BME280;60509;47.308;-122.428;2023-05-22T00:13:38;101127.14;;;16.44;33.47
72486;BME280;60509;47.308;-122.428;2023-05-22T00:16:05;101128.38;;;16.81;33.55
72486;BME280;60509;47.308;-122.428;2023-05-22T00:18:30;101124.79;;;16.66;33.47
72486;BME280;60509;47.308;-122.428;2023-05-22T00:20:56;101129.68;;;16.72;33.41
72486;BME280;60509;47.308;-122.428;2023-05-22T00:23:23;101125.67;;;16.42;33.41
72486;BME280;60509;47.308;-122.428;2023-05-22T00:25:48;101125.74;;;16.57;33.46
72486;BME280;60509;47.308;-122.428;2023-05-22T00:28:14;101124.02;;;16.78;33.42
72486;BME280;60509;47.308;-122.428;2023-05-22T00:30:40;101123.95;;;16.59;33.38
72486;BME280;60509;47.308;-122.428;2023-05-22T00:33:06;101120.71;;;16.56;33.22
72486;BME280;60509;47.308;-122.428;2023-05-22T00:35:32;101121.51;;;16.64;33.29
72486;BME280;60509;47.308;-122.428;2023-05-22T00:37:58;101124.40;;;16.85;33.12
72486;BME280;60509;47.308;-122.428;2023-05-22T00:40:24;101126.16;;;16.43;33.16
72486;BME280;60509;47.308;-122.428;2023-05-22T00:42:49;101128.19;;;16.50;33.25
72486;BME280;60509;47.308;-122.428;2023-05-22T00:45:16;101126.98;;;16.65;33.20
72486;BME280;60509;47.308;-122.428;2023-05-22T00:47:42;101123.48;;;16.36;33.46
72486;BME280;60509;47.308;-122.428;2023-05-22T00:50:09;101123.54;;;17.06;32.91
72486;BME280;60509;47.308;-122.428;2023-05-22T00:52:34;101122.78;;;17.11;32.90
72486;BME280;60509;47.308;-122.428;2023-05-22T00:54:59;101122.51;;;16.88;33.38
72486;BME280;60509;47.308;-122.428;2023-05-22T00:57:25;101118.15;;;16.99;33.36
72486;BME280;60509;47.308;-122.428;2023-05-22T00:59:51;101118.25;;;16.62;33.30
72486;BME280;60509;47.308;-122.428;2023-05-22T01:02:17;101117.39;;;16.76;33.58
72486;BME280;60509;47.308;-122.428;2023-05-22T01:04:45;101116.74;;;16.41;33.83
72486;BME280;60509;47.308;-122.428;2023-05-22T01:07:09;101111.86;;;16.70;33.30
72486;BME280;60509;47.308;-122.428;2023-05-22T01:09:35;101112.56;;;16.59;33.12
72486;BME280;60509;47.308;-122.428;2023-05-22T01:12:10;101111.98;;;16.98;33.07
72486;BME280;60509;47.308;-122.428;2023-05-22T01:14:35;101108.98;;;16.88;32.87
72486;BME280;60509;47.308;-122.428;2023-05-22T01:16:58;101106.86;;;17.08;32.74
72486;BME280;60509;47.308;-122.428;2023-05-22T01:19:35;101104.28;;;16.62;32.78
72486;BME280;60509;47.308;-122.428;2023-05-22T01:21:51;101101.44;;;16.80;32.81
72486;BME280;60509;47.308;-122.428;2023-05-22T01:24:37;101102.69;;;16.82;33.22
72486;BME280;60509;47.308;-122.428;2023-05-22T01:26:52;101103.14;;;16.78;33.14
72486;BME280;60509;47.308;-122.428;2023-05-22T01:29:44;101100.01;;;16.56;33.32
72486;BME280;60509;47.308;-122.428;2023-05-22T01:31:30;101102.19;;;16.69;33.61
72486;BME280;60509;47.308;-122.428;2023-05-22T01:33:56;101099.50;;;16.57;33.30
72486;BME280;60509;47.308;-122.428;2023-05-22T01:36:21;101099.35;;;16.33;33.23
72486;BME280;60509;47.308;-122.428;2023-05-22T01:38:47;101104.12;;;16.92;33.28
72486;BME280;60509;47.308;-122.428;2023-05-22T01:41:12;101102.50;;;16.50;33.25
72486;BME280;60509;47.308;-122.428;2023-05-22T01:43:38;101101.22;;;16.49;33.41
72486;BME280;60509;47.308;-122.428;2023-05-22T01:46:05;101103.17;;;16.34;33.08
72486;BME280;60509;47.308;-122.428;2023-05-22T01:48:30;101102.55;;;16.34;33.36
72486;BME280;60509;47.308;-122.428;2023-05-22T01:51:01;101107.60;;;15.94;33.56
72486;BME280;60509;47.308;-122.428;2023-05-22T01:53:27;101104.57;;;16.56;33.32
72486;BME280;60509;47.308;-122.428;2023-05-22T01:55:54;101102.50;;;16.66;32.91
72486;BME280;60509;47.308;-122.428;2023-05-22T01:58:23;101101.60;;;15.99;33.61
72486;BME280;60509;47.308;-122.428;2023-05-22T02:00:41;101103.23;;;16.15;33.19
72486;BME280;60509;47.308;-122.428;2023-05-22T02:03:07;101102.95;;;16.58;33.13
72486;BME280;60509;47.308;-122.428;2023-05-22T02:05:33;101108.59;;;16.66;33.00
72486;BME280;60509;47.308;-122.428;2023-05-22T02:08:00;101107.35;;;16.64;33.27
72486;BME280;60509;47.308;-122.428;2023-05-22T02:10:25;101105.75;;;16.33;33.52
72486;BME280;60509;47.308;-122.428;2023-05-22T02:12:50;101108.49;;;16.96;33.15
72486;BME280;60509;47.308;-122.428;2023-05-22T02:15:15;101107.82;;;16.51;33.36
72486;BME280;60509;47.308;-122.428;2023-05-22T02:17:41;101111.47;;;16.54;33.49
72486;BME280;60509;47.308;-122.428;2023-05-22T02:20:11;101113.06;;;16.24;33.60
72486;BME280;60509;47.308;-122.428;2023-05-22T02:22:34;101117.85;;;16.26;33.29
72486;BME280;60509;47.308;-122.428;2023-05-22T02:24:59;101117.92;;;16.12;33.57
72486;BME280;60509;47.308;-122.428;2023-05-22T02:27:30;101120.61;;;16.03;33.62
72486;BME280;60509;47.308;-122.428;2023-05-22T02:29:51;101119.76;;;16.55;33.40
72486;BME280;60509;47.308;-122.428;2023-05-22T02:32:17;101119.63;;;16.47;32.96
72486;BME280;60509;47.308;-122.428;2023-05-22T02:34:43;101125.65;;;16.38;33.31
72486;BME280;60509;47.308;-122.428;2023-05-22T02:37:09;101126.77;;;16.03;33.16
72486;BME280;60509;47.308;-122.428;2023-05-22T02:39:35;101127.02;;;15.90;33.34
72486;BME280;60509;47.308;-122.428;2023-05-22T02:42:01;101129.32;;;16.32;33.02
72486;BME280;60509;47.308;-122.428;2023-05-22T02:44:27;101126.19;;;16.39;33.04
72486;BME280;60509;47.308;-122.428;2023-05-22T02:46:53;101127.15;;;16.30;32.80
72486;BME280;60509;47.308;-122.428;2023-05-22T02:49:19;101127.95;;;16.96;32.71
72486;BME280;60509;47.308;-122.428;2023-05-22T02:51:45;101133.00;;;16.35;33.01
72486;BME280;60509;47.308;-122.428;2023-05-22T02:54:11;101129.83;;;16.71;32.42
72486;BME280;60509;47.308;-122.428;2023-05-22T02:56:37;101130.66;;;16.83;32.27
72486;BME280;60509;47.308;-122.428;2023-05-22T02:59:03;101129.66;;;16.43;32.54
72486;BME280;60509;47.308;-122.428;2023-05-22T03:01:29;101126.08;;;16.72;32.69
72486;BME280;60509;47.308;-122.428;2023-05-22T03:03:54;101129.30;;;16.68;33.20
72486;BME280;60509;47.308;-122.428;2023-05-22T03:06:20;101129.14;;;16.59;33.43
72486;BME280;60509;47.308;-122.428;2023-05-22T03:08:46;101130.42;;;16.05;33.85
72486;BME280;60509;47.308;-122.428;2023-05-22T03:11:12;101129.58;;;16.57;33.41
72486;BME280;60509;47.308;-122.428;2023-05-22T03:13:38;101129.86;;;16.87;33.12
72486;BME280;60509;47.308;-122.428;2023-05-22T03:16:05;101133.29;;;16.96;33.22
72486;BME280;60509;47.308;-122.428;2023-05-22T03:18:30;101133.91;;;16.81;33.22
72486;BME280;60509;47.308;-122.428;2023-05-22T03:20:56;101134.96;;;16.78;33.11
72486;BME280;60509;47.308;-122.428;2023-05-22T03:23:22;101137.52;;;17.01;33.13
72486;BME280;60509;47.308;-122.428;2023-05-22T03:25:48;101138.76;;;16.71;33.29
72486;BME280;60509;47.308;-122.428;2023-05-22T03:28:14;101138.40;;;16.70;33.40
72486;BME280;60509;47.308;-122.428;2023-05-22T03:30:40;101136.24;;;16.71;33.19
72486;BME280;60509;47.308;-122.428;2023-05-22T03:33:06;101136.57;;;16.63;33.36
72486;BME280;60509;47.308;-122.428;2023-05-22T03:35:32;101134.25;;;16.81;33.17
72486;BME280;60509;47.308;-122.428;2023-05-22T03:37:58;101133.23;;;17.05;33.11
72486;BME280;60509;47.308;-122.428;2023-05-22T03:40:24;101135.50;;;16.67;33.23
72486;BME280;60509;47.308;-122.428;2023-05-22T03:42:50;101139.31;;;16.81;33.11
72486;BME280;60509;47.308;-122.428;2023-05-22T03:45:16;101140.68;;;16.68;33.07
72486;BME280;60509;47.308;-122.428;2023-05-22T03:47:42;101139.08;;;16.83;32.92
72486;BME280;60509;47.308;-122.428;2023-05-22T03:50:08;101141.17;;;16.87;33.02
72486;BME280;60509;47.308;-122.428;2023-05-22T03:52:34;101143.46;;;17.07;32.84
72486;BME280;60509;47.308;-122.428;2023-05-22T03:55:00;101148.46;;;16.96;32.90
72486;BME280;60509;47.308;-122.428;2023-05-22T03:57:26;101147.48;;;16.97;32.68
72486;BME280;60509;47.308;-122.428;2023-05-22T03:59:52;101151.70;;;17.14;32.79
72486;BME280;60509;47.308;-122.428;2023-05-22T04:02:18;101157.14;;;16.77;33.24
72486;BME280;60509;47.308;-122.428;2023-05-22T04:04:44;101160.32;;;16.99;33.23
72486;BME280;60509;47.308;-122.428;2023-05-22T04:07:09;101160.58;;;16.91;33.51
72486;BME280;60509;47.308;-122.428;2023-05-22T04:09:35;101162.23;;;17.02;33.48
72486;BME280;60509;47.308;-122.428;2023-05-22T04:12:01;101165.73;;;17.04;33.43
72486;BME280;60509;47.308;-122.428;2023-05-22T04:14:27;101169.37;;;17.31;33.31
72486;BME280;60509;47.308;-122.428;2023-05-22T04:16:53;101170.79;;;17.36;33.29
72486;BME280;60509;47.308;-122.428;2023-05-22T04:19:19;101170.63;;;16.81;33.39
72486;BME280;60509;47.308;-122.428;2023-05-22T04:21:46;101179.41;;;17.00;33.27
72486;BME280;60509;47.308;-122.428;2023-05-22T04:24:11;101182.19;;;17.09;33.11
72486;BME280;60509;47.308;-122.428;2023-05-22T04:26:37;101185.86;;;17.30;33.07
72486;BME280;60509;47.308;-122.428;2023-05-22T04:29:03;101188.44;;;16.92;33.03
72486;BME280;60509;47.308;-122.428;2023-05-22T04:31:29;101189.89;;;17.08;32.91
72486;BME280;60509;47.308;-122.428;2023-05-22T04:33:55;101191.93;;;16.88;32.96
72486;BME280;60509;47.308;-122.428;2023-05-22T04:36:26;101192.84;;;16.93;32.79
72486;BME280;60509;47.308;-122.428;2023-05-22T04:38:47;101195.05;;;17.12;32.69
72486;BME280;60509;47.308;-122.428;2023-05-22T04:41:13;101194.42;;;17.15;32.60
72486;BME280;60509;47.308;-122.428;2023-05-22T04:43:38;101197.73;;;16.89;32.78
72486;BME280;60509;47.308;-122.428;2023-05-22T04:46:04;101199.02;;;16.98;32.72
72486;BME280;60509;47.308;-122.428;2023-05-22T04:48:30;101199.95;;;17.11;32.67
72486;BME280;60509;47.308;-122.428;2023-05-22T04:50:56;101204.29;;;17.43;32.44
72486;BME280;60509;47.308;-122.428;2023-05-22T04:53:22;101203.84;;;17.02;32.61
72486;BME280;60509;47.308;-122.428;2023-05-22T04:55:48;101203.23;;;17.27;32.53
72486;BME280;60509;47.308;-122.428;2023-05-22T04:58:14;101202.80;;;17.02;32.51
72486;BME280;60509;47.308;-122.428;2023-05-22T05:00:40;101207.84;;;16.84;32.56
72486;BME280;60509;47.308;-122.428;2023-05-22T05:03:06;101205.24;;;17.07;32.45
72486;BME280;60509;47.308;-122.428;2023-05-22T05:05:32;101209.11;;;16.90;32.50
72486;BME280;60509;47.308;-122.428;2023-05-22T05:07:58;101205.76;;;16.86;32.54
72486;BME280;60509;47.308;-122.428;2023-05-22T05:10:24;101207.80;;;17.41;32.40
72486;BME280;60509;47.308;-122.428;2023-05-22T05:12:50;101209.71;;;17.13;32.27
72486;BME280;60509;47.308;-122.428;2023-05-22T05:15:16;101212.16;;;16.96;32.27
72486;BME280;60509;47.308;-122.428;2023-05-22T05:17:41;101215.32;;;17.08;32.33
72486;BME280;60509;47.308;-122.428;2023-05-22T05:20:08;101221.05;;;16.95;32.35
72486;BME280;60509;47.308;-122.428;2023-05-22T05:22:34;101218.32;;;16.88;32.31
72486;BME280;60509;47.308;-122.428;2023-05-22T05:24:59;101222.38;;;17.08;32.24
72486;BME280;60509;47.308;-122.428;2023-05-22T05:27:25;101220.54;;;17.02;32.17
72486;BME280;60509;47.308;-122.428;2023-05-22T05:29:51;101219.59;;;16.87;32.22
72486;BME280;60509;47.308;-122.428;2023-05-22T05:32:17;101220.29;;;16.96;32.08
72486;BME280;60509;47.308;-122.428;2023-05-22T05:34:43;101220.29;;;17.10;31.86
72486;BME280;60509;47.308;-122.428;2023-05-22T05:37:09;101218.59;;;17.05;31.92
72486;BME280;60509;47.308;-122.428;2023-05-22T05:39:35;101218.93;;;17.08;31.84
72486;BME280;60509;47.308;-122.428;2023-05-22T05:42:01;101222.00;;;17.04;31.18
72486;BME280;60509;47.308;-122.428;2023-05-22T05:44:27;101221.03;;;17.43;31.29
72486;BME280;60509;47.308;-122.428;2023-05-22T05:46:53;101222.28;;;17.28;31.45
72486;BME280;60509;47.308;-122.428;2023-05-22T05:49:19;101222.79;;;17.04;31.34
72486;BME280;60509;47.308;-122.428;2023-05-22T05:51:45;101221.20;;;16.88;31.47
72486;BME280;60509;47.308;-122.428;2023-05-22T05:54:11;101218.88;;;17.19;31.34
72486;BME280;60509;47.308;-122.428;2023-05-22T05:56:37;101219.80;;;17.13;31.20
72486;BME280;60509;47.308;-122.428;2023-05-22T05:59:03;101220.92;;;17.06;31.33
72486;BME280;60509;47.308;-122.428;2023-05-22T06:01:29;101219.16;;;16.80;31.32
72486;BME280;60509;47.308;-122.428;2023-05-22T06:03:54;101217.96;;;16.96;31.38
72486;BME280;60509;47.308;-122.428;2023-05-22T06:06:20;101219.64;;;16.88;31.35
72486;BME280;60509;47.308;-122.428;2023-05-22T06:08:46;101218.97;;;17.09;31.10
72486;BME280;60509;47.308;-122.428;2023-05-22T06:11:12;101219.03;;;16.90;31.42
72486;BME280;60509;47.308;-122.428;2023-05-22T06:13:38;101220.79;;;16.92;31.60
72486;BME280;60509;47.308;-122.428;2023-05-22T06:16:04;101221.19;;;17.18;31.55
72486;BME280;60509;47.308;-122.428;2023-05-22T06:18:30;101219.29;;;16.99;31.78
72486;BME280;60509;47.308;-122.428;2023-05-22T06:20:56;101219.19;;;16.92;32.01
72486;BME280;60509;47.308;-122.428;2023-05-22T06:23:22;101221.75;;;17.10;32.40
72486;BME280;60509;47.308;-122.428;2023-05-22T06:25:48;101217.96;;;17.18;32.60
72486;BME280;60509;47.308;-122.428;2023-05-22T06:28:14;101215.60;;;17.02;32.62
72486;BME280;60509;47.308;-122.428;2023-05-22T06:30:40;101218.61;;;17.19;32.87
72486;BME280;60509;47.308;-122.428;2023-05-22T06:33:06;101222.49;;;17.29;32.94
72486;BME280;60509;47.308;-122.428;2023-05-22T06:35:32;101222.45;;;16.73;33.17
72486;BME280;60509;47.308;-122.428;2023-05-22T06:37:58;101219.55;;;16.66;33.01
72486;BME280;60509;47.308;-122.428;2023-05-22T06:40:23;101216.05;;;16.78;33.06
72486;BME280;60509;47.308;-122.428;2023-05-22T06:42:51;101220.43;;;16.89;32.92
72486;BME280;60509;47.308;-122.428;2023-05-22T06:45:16;101222.08;;;16.53;33.02
72486;BME280;60509;47.308;-122.428;2023-05-22T06:47:42;101224.16;;;16.69;32.95
72486;BME280;60509;47.308;-122.428;2023-05-22T06:50:08;101222.56;;;16.45;33.11
72486;BME280;60509;47.308;-122.428;2023-05-22T06:52:33;101220.31;;;16.44;33.05
72486;BME280;60509;47.308;-122.428;2023-05-22T06:54:59;101221.03;;;16.62;32.72
72486;BME280;60509;47.308;-122.428;2023-05-22T06:57:25;101216.03;;;16.67;32.70
72486;BME280;60509;47.308;-122.428;2023-05-22T06:59:51;101215.68;;;16.75;32.56
72486;BME280;60509;47.308;-122.428;2023-05-22T07:02:17;101213.14;;;17.08;32.35
72486;BME280;60509;47.308;-122.428;2023-05-22T07:04:43;101212.55;;;16.74;32.63
72486;BME280;60509;47.308;-122.428;2023-05-22T07:07:09;101206.71;;;17.04;32.56
72486;BME280;60509;47.308;-122.428;2023-05-22T07:09:35;101203.44;;;16.87;32.46
72486;BME280;60509;47.308;-122.428;2023-05-22T07:12:01;101200.47;;;16.95;32.29
72486;BME280;60509;47.308;-122.428;2023-05-22T07:14:27;101202.93;;;16.91;32.32
72486;BME280;60509;47.308;-122.428;2023-05-22T07:16:53;101203.26;;;16.48;32.70
72486;BME280;60509;47.308;-122.428;2023-05-22T07:19:19;101203.39;;;16.71;32.44
72486;BME280;60509;47.308;-122.428;2023-05-22T07:21:45;101206.03;;;17.05;32.29
72486;BME280;60509;47.308;-122.428;2023-05-22T07:24:11;101202.25;;;16.74;32.42
72486;BME280;60509;47.308;-122.428;2023-05-22T07:26:37;101204.21;;;17.07;32.17
72486;BME280;60509;47.308;-122.428;2023-05-22T07:29:03;101205.81;;;16.52;32.91
72486;BME280;60509;47.308;-122.428;2023-05-22T07:31:29;101201.62;;;17.12;32.43
72486;BME280;60509;47.308;-122.428;2023-05-22T07:33:54;101201.33;;;17.04;32.53
72486;BME280;60509;47.308;-122.428;2023-05-22T07:36:21;101204.17;;;17.18;32.30
72486;BME280;60509;47.308;-122.428;2023-05-22T07:38:46;101202.76;;;16.78;32.35
72486;BME280;60509;47.308;-122.428;2023-05-22T07:41:12;101203.76;;;17.11;32.23
72486;BME280;60509;47.308;-122.428;2023-05-22T07:43:38;101208.62;;;16.82;32.43
72486;BME280;60509;47.308;-122.428;2023-05-22T07:46:04;101206.24;;;16.91;32.28
72486;BME280;60509;47.308;-122.428;2023-05-22T07:48:30;101203.00;;;16.79;32.29
72486;BME280;60509;47.308;-122.428;2023-05-22T07:50:56;101200.29;;;16.61;32.30
72486;BME280;60509;47.308;-122.428;2023-05-22T07:53:22;101196.79;;;16.34;32.49
72486;BME280;60509;47.308;-122.428;2023-05-22T07:55:48;101200.18;;;16.29;32.58
72486;BME280;60509;47.308;-122.428;2023-05-22T07:58:14;101197.80;;;16.76;32.29
72486;BME280;60509;47.308;-122.428;2023-05-22T08:00:40;101194.54;;;16.37;32.36
72486;BME280;60509;47.308;-122.428;2023-05-22T08:03:06;101196.12;;;16.51;32.31
72486;BME280;60509;47.308;-122.428;2023-05-22T08:05:32;101194.38;;;16.41;32.28
72486;BME280;60509;47.308;-122.428;2023-05-22T08:07:58;101194.21;;;16.10;32.55
72486;BME280;60509;47.308;-122.428;2023-05-22T08:10:24;101198.32;;;16.50;32.09
72486;BME280;60509;47.308;-122.428;2023-05-22T08:12:50;101198.73;;;16.35;32.32
72486;BME280;60509;47.308;-122.428;2023-05-22T08:15:16;101198.70;;;16.00;32.40
72486;BME280;60509;47.308;-122.428;2023-05-22T08:17:42;101197.79;;;16.96;32.00
72486;BME280;60509;47.308;-122.428;2023-05-22T08:20:09;101194.54;;;17.06;31.71
72486;BME280;60509;47.308;-122.428;2023-05-22T08:22:35;101193.16;;;17.29;31.42
72486;BME280;60509;47.308;-122.428;2023-05-22T08:25:00;101191.90;;;16.94;31.75
72486;BME280;60509;47.308;-122.428;2023-05-22T08:27:25;101194.96;;;16.90;31.38
72486;BME280;60509;47.308;-122.428;2023-05-22T08:29:51;101195.67;;;17.29;31.09
72486;BME280;60509;47.308;-122.428;2023-05-22T08:32:16;101198.17;;;17.38;31.01
72486;BME280;60509;47.308;-122.428;2023-05-22T08:34:43;101199.99;;;17.00;31.30
72486;BME280;60509;47.308;-122.428;2023-05-22T08:37:07;101200.85;;;17.38;31.23
72486;BME280;60509;47.308;-122.428;2023-05-22T08:39:31;101202.21;;;16.92;31.53
72486;BME280;60509;47.308;-122.428;2023-05-22T08:41:56;101201.93;;;16.71;31.35
72486;BME280;60509;47.308;-122.428;2023-05-22T08:44:21;101198.32;;;16.31;29.60
72486;BME280;60509;47.308;-122.428;2023-05-22T08:46:48;101199.06;;;15.63;31.34
72486;BME280;60509;47.308;-122.428;2023-05-22T08:49:14;101199.94;;;15.06;31.38
72486;BME280;60509;47.308;-122.428;2023-05-22T08:51:40;101199.30;;;17.31;29.54
72486;BME280;60509;47.308;-122.428;2023-05-22T08:54:06;101196.53;;;16.15;29.44
72486;BME280;60509;47.308;-122.428;2023-05-22T08:56:32;101198.85;;;16.62;30.31
72486;BME280;60509;47.308;-122.428;2023-05-22T08:58:59;101198.50;;;15.57;31.03
72486;BME280;60509;47.308;-122.428;2023-05-22T09:01:24;101192.91;;;15.97;30.56
72486;BME280;60509;47.308;-122.428;2023-05-22T09:03:50;101194.74;;;16.04;30.53
72486;BME280;60509;47.308;-122.428;2023-05-22T09:06:15;101189.77;;;16.18;30.03
72486;BME280;60509;47.308;-122.428;2023-05-22T09:08:41;101191.97;;;16.22;30.03
72486;BME280;60509;47.308;-122.428;2023-05-22T09:11:07;101189.26;;;16.17;29.80
72486;BME280;60509;47.308;-122.428;2023-05-22T09:13:33;101190.98;;;16.74;29.02
72486;BME280;60509;47.308;-122.428;2023-05-22T09:16:06;101191.85;;;16.51;28.82
72486;BME280;60509;47.308;-122.428;2023-05-22T09:18:27;101192.13;;;16.21;29.63
72486;BME280;60509;47.308;-122.428;2023-05-22T09:20:51;101193.02;;;16.61;29.25
72486;BME280;60509;47.308;-122.428;2023-05-22T09:23:17;101190.31;;;16.15;29.31
72486;BME280;60509;47.308;-122.428;2023-05-22T09:25:44;101188.58;;;16.27;29.28
72486;BME280;60509;47.308;-122.428;2023-05-22T09:28:11;101187.07;;;16.59;28.93
72486;BME280;60509;47.308;-122.428;2023-05-22T09:30:35;101186.52;;;15.61;29.82
72486;BME280;60509;47.308;-122.428;2023-05-22T09:33:02;101184.16;;;15.33;29.96
72486;BME280;60509;47.308;-122.428;2023-05-22T09:35:27;101187.21;;;15.07;30.61
72486;BME280;60509;47.308;-122.428;2023-05-22T09:37:54;101187.80;;;14.95;30.71
72486;BME280;60509;47.308;-122.428;2023-05-22T09:40:20;101190.71;;;15.48;30.41
72486;BME280;60509;47.308;-122.428;2023-05-22T09:42:45;101190.60;;;15.83;30.10
72486;BME280;60509;47.308;-122.428;2023-05-22T09:45:11;101185.06;;;16.02;30.03
72486;BME280;60509;47.308;-122.428;2023-05-22T09:47:38;101187.15;;;15.75;30.20
72486;BME280;60509;47.308;-122.428;2023-05-22T09:50:05;101186.38;;;15.65;30.63
72486;BME280;60509;47.308;-122.428;2023-05-22T09:52:33;101185.02;;;15.51;30.81
72486;BME280;60509;47.308;-122.428;2023-05-22T09:54:56;101183.23;;;15.22;30.98
72486;BME280;60509;47.308;-122.428;2023-05-22T09:57:23;101179.84;;;15.02;31.16
72486;BME280;60509;47.308;-122.428;2023-05-22T09:59:50;101179.28;;;14.78;31.27
72486;BME280;60509;47.308;-122.428;2023-05-22T10:02:13;101180.11;;;14.95;31.25
72486;BME280;60509;47.308;-122.428;2023-05-22T10:04:40;101177.98;;;14.94;31.23
72486;BME280;60509;47.308;-122.428;2023-05-22T10:07:05;101170.78;;;15.09;31.33
72486;BME280;60509;47.308;-122.428;2023-05-22T10:09:33;101169.11;;;14.86;31.39
72486;BME280;60509;47.308;-122.428;2023-05-22T10:11:59;101169.46;;;15.12;31.46
72486;BME280;60509;47.308;-122.428;2023-05-22T10:14:24;101169.68;;;14.70;31.55
72486;BME280;60509;47.308;-122.428;2023-05-22T10:16:48;101171.51;;;15.84;30.77
72486;BME280;60509;47.308;-122.428;2023-05-22T10:19:14;101172.61;;;15.71;30.77
72486;BME280;60509;47.308;-122.428;2023-05-22T10:21:41;101172.16;;;15.36;31.14
72486;BME280;60509;47.308;-122.428;2023-05-22T10:24:06;101173.18;;;15.05;31.34
72486;BME280;60509;47.308;-122.428;2023-05-22T10:26:32;101173.44;;;15.33;31.09
72486;BME280;60509;47.308;-122.428;2023-05-22T10:29:02;101175.33;;;15.00;31.24
72486;BME280;60509;47.308;-122.428;2023-05-22T10:31:30;101173.49;;;15.22;31.10
72486;BME280;60509;47.308;-122.428;2023-05-22T10:36:29;101172.89;;;15.15;29.85
72486;BME280;60509;47.308;-122.428;2023-05-22T10:38:56;101174.77;;;15.10;30.20
72486;BME280;60509;47.308;-122.428;2023-05-22T10:41:10;101173.99;;;14.51;30.62
72486;BME280;60509;47.308;-122.428;2023-05-22T10:43:39;101172.33;;;14.30;30.59
72486;BME280;60509;47.308;-122.428;2023-05-22T10:46:02;101170.34;;;14.85;30.81
72486;BME280;60509;47.308;-122.428;2023-05-22T10:48:26;101170.95;;;16.14;30.08
72486;BME280;60509;47.308;-122.428;2023-05-22T10:50:53;101167.72;;;15.41;30.55
72486;BME280;60509;47.308;-122.428;2023-05-22T10:53:22;101167.97;;;15.56;30.58
72486;BME280;60509;47.308;-122.428;2023-05-22T10:57:09;101164.55;;;14.99;29.62
72486;BME280;60509;47.308;-122.428;2023-05-22T10:59:33;101164.99;;;14.84;29.90
72486;BME280;60509;47.308;-122.428;2023-05-22T11:01:46;101167.03;;;15.37;29.62
72486;BME280;60509;47.308;-122.428;2023-05-22T11:04:12;101169.47;;;15.40;29.71
72486;BME280;60509;47.308;-122.428;2023-05-22T11:06:38;101176.19;;;15.48;30.30
72486;BME280;60509;47.308;-122.428;2023-05-22T11:09:25;101175.81;;;15.39;30.49
72486;BME280;60509;47.308;-122.428;2023-05-22T11:11:29;101176.64;;;15.69;30.18
72486;BME280;60509;47.308;-122.428;2023-05-22T11:14:01;101177.18;;;14.95;30.75
72486;BME280;60509;47.308;-122.428;2023-05-22T11:16:21;101180.78;;;15.34;30.64
72486;BME280;60509;47.308;-122.428;2023-05-22T11:18:47;101180.19;;;15.01;30.88
72486;BME280;60509;47.308;-122.428;2023-05-22T11:21:12;101180.93;;;15.03;30.93
72486;BME280;60509;47.308;-122.428;2023-05-22T11:23:37;101178.05;;;15.21;30.86
72486;BME280;60509;47.308;-122.428;2023-05-22T11:26:19;101183.39;;;15.38;30.52
72486;BME280;60509;47.308;-122.428;2023-05-22T11:28:29;101181.26;;;15.34;30.46
72486;BME280;60509;47.308;-122.428;2023-05-22T11:30:55;101182.38;;;14.59;31.13
72486;BME280;60509;47.308;-122.428;2023-05-22T11:33:21;101186.02;;;14.68;31.19
72486;BME280;60509;47.308;-122.428;2023-05-22T11:35:47;101184.78;;;14.32;31.15
72486;BME280;60509;47.308;-122.428;2023-05-22T11:38:11;101182.77;;;14.49;31.23
72486;BME280;60509;47.308;-122.428;2023-05-22T11:40:36;101180.57;;;14.54;31.25
72486;BME280;60509;47.308;-122.428;2023-05-22T11:43:01;101182.10;;;14.38;31.38
72486;BME280;60509;47.308;-122.428;2023-05-22T11:45:26;101180.98;;;15.10;30.84
72486;BME280;60509;47.308;-122.428;2023-05-22T11:47:51;101183.50;;;14.59;30.98
72486;BME280;60509;47.308;-122.428;2023-05-22T11:50:16;101180.73;;;14.76;30.98
72486;BME280;60509;47.308;-122.428;2023-05-22T11:52:42;101179.79;;;14.88;30.91
72486;BME280;60509;47.308;-122.428;2023-05-22T11:55:08;101177.37;;;15.01;30.87
72486;BME280;60509;47.308;-122.428;2023-05-22T11:57:34;101176.43;;;14.35;31.22
72486;BME280;60509;47.308;-122.428;2023-05-22T11:59:58;101176.44;;;14.42;31.19
72486;BME280;60509;47.308;-122.428;2023-05-22T12:02:23;101176.65;;;14.62;31.13
72486;BME280;60509;47.308;-122.428;2023-05-22T12:04:53;101175.59;;;14.22;31.22
72486;BME280;60509;47.308;-122.428;2023-05-22T12:07:13;101173.85;;;14.17;31.03
72486;BME280;60509;47.308;-122.428;2023-05-22T12:09:38;101169.66;;;14.66;30.87
72486;BME280;60509;47.308;-122.428;2023-05-22T12:12:03;101171.72;;;14.55;30.97
72486;BME280;60509;47.308;-122.428;2023-05-22T12:14:30;101166.59;;;14.80;30.69
72486;BME280;60509;47.308;-122.428;2023-05-22T12:16:57;101166.74;;;14.47;30.84